Time;durP1;ratioP1;P1;durP2;ratioP2;P2;SDS_P1;SDS_P2;PMS_P1;PMS_P2;Temp;Humidity;BMP_temperature;BMP_pressure;BME280_temperature;BME280_humidity;BME280_pressure;Samples;Min_cycle;Max_cycle;Signal;HPM_P1;HPM_P2
2022/06/23 00:02:27;;;;;;;9.15;3.63;;;;;;;18.96;52.22;100980.59;5022253;28;20049;-69
2022/06/23 00:04:57;;;;;;;10.93;3.70;;;;;;;18.98;52.57;100986.66;5032564;28;20040;-69
2022/06/23 00:07:26;;;;;;;8.88;3.60;;;;;;;19.03;52.84;100985.81;5032554;28;20386;-69
2022/06/23 00:09:54;;;;;;;7.65;3.70;;;;;;;18.97;53.15;100982.25;5031022;28;20037;-68
2022/06/23 00:12:29;;;;;;;4.70;3.45;;;;;;;19.01;52.90;100990.75;5032711;28;20056;-69
2022/06/23 00:15:19;;;;;;;8.32;3.67;;;;;;;18.99;52.90;100979.25;5018380;28;20101;-69
2022/06/23 00:18:03;;;;;;;6.97;3.92;;;;;;;18.97;52.91;100982.25;5012790;28;20037;-68
2022/06/23 00:21:03;;;;;;;8.57;3.75;;;;;;;18.98;53.00;100978.44;5012480;28;20040;-69
2022/06/23 00:23:33;;;;;;;7.07;3.88;;;;;;;18.88;54.53;100987.47;5011490;28;20052;-69
2022/06/23 00:26:07;;;;;;;10.13;3.95;;;;;;;18.88;54.97;100979.25;5011755;28;20049;-69
2022/06/23 00:29:01;;;;;;;7.88;3.90;;;;;;;18.86;54.33;100973.25;5013223;28;20021;-68
2022/06/23 00:31:35;;;;;;;7.90;4.28;;;;;;;18.78;55.41;100979.25;5006403;28;20038;-68
2022/06/23 00:34:05;;;;;;;7.72;4.43;;;;;;;18.73;55.98;100987.50;5012499;28;20049;-68
2022/06/23 00:36:36;;;;;;;8.02;4.07;;;;;;;18.68;56.15;100985.56;5012510;28;20106;-69
2022/06/23 00:39:05;;;;;;;7.55;4.38;;;;;;;18.69;55.98;100991.88;5018659;28;20029;-69
2022/06/23 00:41:36;;;;;;;9.55;4.43;;;;;;;18.67;56.81;100988.59;5032194;28;20052;-68
2022/06/23 00:44:07;;;;;;;;;;;;;;;18.83;54.34;100982.00;5021544;28;20034;-69
2022/06/23 00:46:43;;;;;;;8.13;4.43;;;;;;;18.63;56.19;100980.13;5012746;28;19914;-69
2022/06/23 00:49:23;;;;;;;8.60;4.47;;;;;;;18.55;56.70;100981.47;5012366;28;20117;-69
2022/06/23 00:51:54;;;;;;;9.52;4.60;;;;;;;18.49;57.37;100977.09;5012395;28;20026;-69
2022/06/23 00:54:25;;;;;;;12.00;4.72;;;;;;;18.40;58.12;100970.53;5012614;28;20057;-69
2022/06/23 00:57:06;;;;;;;;;;;;;;;18.57;55.82;100967.53;5012766;28;20056;-68
2022/06/23 00:59:42;;;;;;;10.20;5.05;;;;;;;18.34;58.42;100958.78;5011430;28;20270;-69
2022/06/23 01:02:19;;;;;;;11.23;5.38;;;;;;;18.30;59.41;100963.16;5009190;28;20054;-69
2022/06/23 01:05:01;;;;;;;10.38;5.50;;;;;;;18.23;59.49;100963.41;5012187;28;20026;-68
2022/06/23 01:08:15;;;;;;;8.98;5.38;;;;;;;18.30;58.80;100963.16;5012800;28;20075;-69
2022/06/23 01:10:44;;;;;;;9.75;5.30;;;;;;;18.24;61.02;100954.09;4932174;29;20449;-69
2022/06/23 01:13:26;;;;;;;13.38;5.40;;;;;;;18.17;61.00;100959.03;5011261;28;20072;-69
2022/06/23 01:16:14;;;;;;;9.43;5.50;;;;;;;18.18;60.43;100955.19;5031721;28;20068;-68
2022/06/23 01:18:45;;;;;;;14.32;5.40;;;;;;;18.17;61.85;100958.22;5032057;28;20056;-68
2022/06/23 01:21:32;;;;;;;11.00;5.38;;;;;;;18.16;61.07;100962.88;5031842;28;20450;-69
2022/06/23 01:24:21;;;;;;;12.02;5.65;;;;;;;18.17;61.57;100963.69;5024609;28;20026;-68
2022/06/23 01:26:59;;;;;;;9.77;5.93;;;;;;;18.16;61.76;100956.56;5012064;28;20029;-69
2022/06/23 01:29:31;;;;;;;10.77;5.93;;;;;;;18.14;63.26;100959.56;5014826;28;20052;-69
2022/06/23 01:32:08;;;;;;;10.07;5.72;;;;;;;18.12;62.70;100956.28;5031785;28;20152;-69
2022/06/23 01:34:44;;;;;;;11.13;6.03;;;;;;;18.07;63.68;100964.47;5031919;28;20057;-69
2022/06/23 01:37:37;;;;;;;12.82;6.20;;;;;;;18.05;63.17;100955.72;5033430;28;20514;-69
2022/06/23 01:40:02;;;;;;;13.73;6.53;;;;;;;17.96;64.25;100957.38;5034803;28;20084;-68
2022/06/23 01:42:38;;;;;;;9.45;5.78;;;;;;;18.00;64.11;100964.75;5035471;28;20072;-69
2022/06/23 01:45:09;;;;;;;14.07;6.30;;;;;;;17.95;64.40;100955.72;5034816;28;20036;-69
2022/06/23 01:47:53;;;;;;;9.93;5.97;;;;;;;18.03;63.59;100966.16;5034378;28;20171;-69
2022/06/23 01:50:33;;;;;;;13.48;6.55;;;;;;;17.92;64.96;100969.94;5033584;28;20079;-69
2022/06/23 01:53:10;;;;;;;12.73;6.25;;;;;;;17.87;65.60;100957.03;5034862;28;20487;-69
2022/06/23 01:56:14;;;;;;;14.32;6.80;;;;;;;17.89;64.65;100963.94;5018042;28;20049;-68
2022/06/23 01:58:51;;;;;;;13.98;6.82;;;;;;;17.80;66.06;100962.78;5015376;28;20057;-69
2022/06/23 02:01:30;;;;;;;10.43;6.40;;;;;;;17.73;66.24;100956.75;5023224;28;20041;-69
2022/06/23 02:04:12;;;;;;;14.50;6.60;;;;;;;17.76;66.39;100955.41;5054877;28;20116;-68
2022/06/23 02:06:49;;;;;;;12.73;7.00;;;;;;;17.74;66.82;100947.47;5055065;28;20028;-69
2022/06/23 02:09:41;;;;;;;14.52;6.60;;;;;;;17.81;65.66;100953.47;5037708;28;20113;-68
2022/06/23 02:12:34;;;;;;;11.98;7.05;;;;;;;17.79;66.30;100952.13;5034744;28;20109;-69
2022/06/23 02:15:07;;;;;;;13.43;7.03;;;;;;;17.66;67.80;100947.97;5034777;28;20155;-69
2022/06/23 02:17:55;;;;;;;11.02;6.97;;;;;;;17.67;67.74;100944.16;5034615;28;20457;-70
2022/06/23 02:20:38;;;;;;;13.43;7.18;;;;;;;17.66;67.33;100946.09;5008614;28;20045;-69
2022/06/23 02:23:32;;;;;;;15.50;6.90;;;;;;;17.74;66.88;100944.72;5034828;28;20026;-69
2022/06/23 02:26:05;;;;;;;13.27;8.25;;;;;;;17.73;67.69;100937.59;5013972;28;20030;-69
2022/06/23 02:28:38;;;;;;;13.63;6.95;;;;;;;17.73;68.07;100942.25;5014833;28;20033;-69
2022/06/23 02:31:13;;;;;;;14.13;7.65;;;;;;;17.71;67.95;100943.34;5015225;28;20068;-70
2022/06/23 02:33:49;;;;;;;15.98;7.32;;;;;;;17.65;68.42;100936.22;5014686;28;20034;-69
2022/06/23 02:36:42;;;;;;;16.08;7.07;;;;;;;17.69;67.77;100941.97;5014751;28;20033;-70
2022/06/23 02:39:17;;;;;;;13.93;7.15;;;;;;;17.67;68.16;100939.50;5013985;28;20037;-70
2022/06/23 02:41:49;;;;;;;11.98;7.22;;;;;;;17.67;68.23;100938.69;5014699;28;20037;-70
2022/06/23 02:44:41;;;;;;;10.65;7.50;;;;;;;17.67;69.04;100949.63;5014288;28;20036;-69
2022/06/23 02:47:21;;;;;;;17.60;7.88;;;;;;;17.61;69.29;100945.25;5005704;28;20052;-69
2022/06/23 02:50:05;;;;;;;11.80;7.95;;;;;;;17.66;68.45;100942.50;5013646;28;20377;-69
2022/06/23 02:52:55;;;;;;;13.35;7.50;;;;;;;17.59;69.52;100947.41;5014378;28;20026;-69
2022/06/23 02:55:52;;;;;;;13.38;7.88;;;;;;;17.64;68.99;100939.22;5032916;28;20432;-70
2022/06/23 02:58:24;;;;;;;17.58;7.63;;;;;;;17.52;70.55;100936.72;5033840;28;20388;-70
2022/06/23 03:01:03;;;;;;;14.85;7.93;;;;;;;17.56;70.19;100928.78;5032760;28;20583;-68
2022/06/23 03:03:40;;;;;;;13.55;7.75;;;;;;;17.47;71.10;100923.03;5051016;28;20471;-70
2022/06/23 03:06:17;;;;;;;14.70;7.70;;;;;;;17.44;70.70;100918.94;5013834;28;20030;-69
2022/06/23 03:08:55;;;;;;;15.13;7.88;;;;;;;17.39;71.23;100926.28;5012923;28;20496;-69
2022/06/23 03:11:59;;;;;;;12.38;7.60;;;;;;;17.42;70.93;100921.13;5014333;28;20029;-70
2022/06/23 03:14:33;;;;;;;13.98;7.63;;;;;;;17.40;71.34;100917.00;5011570;28;20448;-69
2022/06/23 03:17:11;;;;;;;10.50;7.57;;;;;;;17.34;71.66;100914.22;5026235;28;20037;-69
2022/06/23 03:19:42;;;;;;;14.70;7.65;;;;;;;17.38;71.60;100911.81;5021651;28;20038;-70
2022/06/23 03:22:19;;;;;;;13.63;7.57;;;;;;;17.33;71.66;100907.13;5013632;28;20025;-69
2022/06/23 03:25:01;;;;;;;15.60;7.75;;;;;;;17.31;71.48;100911.22;5013761;28;20034;-70
2022/06/23 03:27:33;;;;;;;14.05;7.72;;;;;;;17.31;71.30;100905.75;5013758;28;20354;-70
2022/06/23 03:30:06;;;;;;;11.43;7.43;;;;;;;17.27;71.85;100899.16;5013242;28;20021;-70
2022/06/23 03:32:39;;;;;;;14.07;7.70;;;;;;;17.15;72.44;100905.72;5013612;28;20064;-70
2022/06/23 03:35:19;;;;;;;19.65;8.00;;;;;;;17.21;72.04;100922.13;5013097;28;20065;-70
2022/06/23 03:38:03;;;;;;;17.15;8.65;;;;;;;17.25;72.11;100921.31;5013430;28;20054;-69
2022/06/23 03:43:33;;;;;;;13.18;7.70;;;;;;;17.19;72.21;100925.13;5013429;28;20163;-69
2022/06/23 03:46:18;;;;;;;10.65;7.13;;;;;;;17.23;72.35;100933.63;5013121;28;20092;-69
2022/06/23 03:48:52;;;;;;;11.98;7.15;;;;;;;17.15;72.71;100918.53;5013492;28;20541;-69
2022/06/23 03:51:29;;;;;;;11.48;6.95;;;;;;;17.18;71.39;100913.38;5013343;28;20034;-70
2022/06/23 03:54:14;;;;;;;12.65;7.10;;;;;;;17.24;70.94;100925.16;5013145;28;20117;-70
2022/06/23 03:57:12;;;;;;;9.25;6.75;;;;;;;17.29;70.56;100932.56;5013427;28;20057;-70
2022/06/23 04:00:11;;;;;;;17.45;7.30;;;;;;;17.18;71.15;100920.72;5012944;28;20491;-70
2022/06/23 04:02:43;;;;;;;21.40;7.93;;;;;;;17.21;71.39;100931.16;5029706;28;20053;-69
2022/06/23 04:05:25;;;;;;;16.17;7.38;;;;;;;17.18;71.33;100926.22;5032320;28;20040;-70
2022/06/23 04:08:02;;;;;;;11.63;6.78;;;;;;;17.21;70.19;100916.66;5033281;28;20361;-70
2022/06/23 04:10:33;;;;;;;11.35;7.10;;;;;;;17.20;70.92;100926.78;5032805;28;20029;-69
2022/06/23 04:13:12;;;;;;;15.07;7.47;;;;;;;17.24;70.29;100921.59;5032298;28;20021;-70
2022/06/23 04:15:41;;;;;;;15.00;7.28;;;;;;;17.14;70.41;100915.00;5032505;28;20423;-70
2022/06/23 04:18:12;;;;;;;10.80;6.95;;;;;;;17.22;69.49;100919.13;5030797;28;20033;-70
2022/06/23 04:20:51;;;;;;;11.55;6.88;;;;;;;17.25;68.99;100904.91;5026227;28;20037;-69
2022/06/23 04:23:29;;;;;;;9.63;7.10;;;;;;;17.27;68.95;100899.16;5012365;28;20329;-70
2022/06/23 04:26:13;;;;;;;15.27;7.15;;;;;;;17.27;69.02;100899.16;5012510;28;20084;-69
2022/06/23 04:28:47;;;;;;;12.10;7.18;;;;;;;17.18;69.32;100898.84;5012893;28;20038;-69
2022/06/23 04:31:35;;;;;;;11.48;7.50;;;;;;;17.24;69.36;100899.72;5012576;28;20112;-69
2022/06/23 04:34:01;;;;;;;14.63;7.20;;;;;;;17.31;69.33;100913.97;5004807;28;20037;-69
2022/06/23 04:36:30;;;;;;;13.75;6.85;;;;;;;17.35;69.34;100923.28;5012806;28;20113;-69
2022/06/23 04:39:01;;;;;;;9.98;7.00;;;;;;;17.37;68.83;100932.03;5013059;28;20030;-69
2022/06/23 04:41:35;;;;;;;14.13;6.90;;;;;;;17.41;68.79;100924.09;5013305;28;20436;-70
2022/06/23 04:44:11;;;;;;;10.48;6.45;;;;;;;17.48;67.59;100916.47;5031895;28;20048;-70
2022/06/23 04:46:43;;;;;;;11.77;7.10;;;;;;;17.45;67.56;100923.31;5032296;28;20030;-70
2022/06/23 04:49:40;;;;;;;12.98;6.78;;;;;;;17.48;67.22;100917.31;5012764;28;20041;-70
2022/06/23 04:52:16;;;;;;;13.30;6.55;;;;;;;17.51;67.44;100922.22;5010519;28;20331;-69
2022/06/23 04:54:54;;;;;;;10.05;6.03;;;;;;;17.49;67.03;100916.19;5012434;28;20026;-69
2022/06/23 04:57:41;;;;;;;11.07;5.82;;;;;;;17.57;66.25;100914.84;5012134;28;20034;-70
2022/06/23 05:00:21;;;;;;;10.32;6.53;;;;;;;17.63;67.13;100907.47;5012288;28;20045;-69
2022/06/23 05:02:54;;;;;;;11.40;6.70;;;;;;;17.69;66.15;100911.84;5044990;28;20045;-69
2022/06/23 05:05:25;;;;;;;11.52;5.85;;;;;;;17.70;66.43;100921.72;5051641;28;20043;-69
2022/06/23 05:08:17;;;;;;;13.68;6.35;;;;;;;17.81;66.13;100928.84;5052133;28;20029;-70
2022/06/23 05:10:51;;;;;;;8.63;5.85;;;;;;;17.85;65.88;100923.66;5034250;28;20057;-69
2022/06/23 05:13:28;;;;;;;10.05;6.10;;;;;;;17.88;65.50;100917.63;5030324;28;20025;-70
2022/06/23 05:16:07;;;;;;;10.70;6.35;;;;;;;17.94;65.32;100921.25;5035977;28;20079;-70
2022/06/23 05:18:54;;;;;;;9.73;6.00;;;;;;;17.94;64.90;100921.25;5035996;28;20032;-70
2022/06/23 05:21:30;;;;;;;8.13;5.88;;;;;;;17.96;64.34;100927.25;5035065;28;20544;-70
2022/06/23 05:24:13;;;;;;;12.45;6.05;;;;;;;18.01;64.51;100922.59;5035649;28;20037;-70
2022/06/23 05:27:02;;;;;;;10.63;6.30;;;;;;;18.03;64.57;100919.59;5035766;28;20075;-70
2022/06/23 05:29:41;;;;;;;10.88;6.25;;;;;;;18.11;64.97;100920.97;5019470;28;20526;-70
2022/06/23 05:32:23;;;;;;;9.80;6.10;;;;;;;18.11;64.98;100916.31;5015694;28;20037;-69
2022/06/23 05:35:06;;;;;;;11.27;6.03;;;;;;;18.16;64.32;100916.31;5032179;28;20390;-69
2022/06/23 05:38:01;;;;;;;8.50;5.95;;;;;;;18.27;64.09;100925.34;5035304;28;20049;-69
2022/06/23 05:40:33;;;;;;;11.80;5.93;;;;;;;18.24;64.20;100921.22;5030096;28;20041;-69
2022/06/23 05:43:01;;;;;;;10.15;5.70;;;;;;;18.29;64.50;100917.66;5028556;28;20084;-70
2022/06/23 05:45:48;;;;;;;10.75;6.10;;;;;;;18.41;63.82;100909.16;5015387;28;20030;-70
2022/06/23 05:48:18;;;;;;;7.88;5.57;;;;;;;18.39;63.43;100917.66;5015464;28;20038;-70
2022/06/23 05:50:54;;;;;;;11.18;5.65;;;;;;;18.51;63.78;100917.38;5015641;28;20026;-70
2022/06/23 05:53:35;;;;;;;11.93;5.70;;;;;;;18.56;63.11;100925.56;5015011;28;20026;-69
2022/06/23 05:56:15;;;;;;;12.18;5.47;;;;;;;18.63;62.73;100914.34;5015703;28;20033;-70
2022/06/23 05:58:51;;;;;;;10.32;5.50;;;;;;;18.76;62.78;100921.13;5015416;28;20037;-69
2022/06/23 06:01:24;;;;;;;7.90;5.30;;;;;;;18.78;63.39;100922.50;5022824;28;20064;-70
2022/06/23 06:03:58;;;;;;;10.75;6.05;;;;;;;18.86;63.03;100931.31;5054885;28;20041;-70
2022/06/23 06:06:24;;;;;;;9.88;5.93;;;;;;;18.92;62.03;100925.50;5054664;28;20025;-70
2022/06/23 06:11:45;;;;;;;10.43;5.40;;;;;;;19.06;61.51;100911.22;5054290;28;20110;-70
2022/06/23 06:14:15;;;;;;;6.65;4.90;;;;;;;19.16;61.37;100919.41;5034515;28;20037;-70
2022/06/23 06:16:41;;;;;;;9.32;5.72;;;;;;;19.19;61.61;100918.84;5017355;28;20030;-70
2022/06/23 06:19:09;;;;;;;10.10;5.18;;;;;;;19.27;61.46;100912.75;5014880;28;20045;-70
2022/06/23 06:21:34;;;;;;;9.15;5.72;;;;;;;19.34;61.82;100906.13;5013573;28;20589;-69
2022/06/23 06:24:09;;;;;;;11.35;5.65;;;;;;;19.40;61.73;100913.22;5013527;28;20109;-70
2022/06/23 06:26:45;;;;;;;17.23;5.78;;;;;;;19.45;61.34;100913.22;5015471;28;20037;-70
2022/06/23 06:29:22;;;;;;;11.15;5.70;;;;;;;19.52;61.34;100910.97;5014993;28;20042;-70
2022/06/23 06:31:51;;;;;;;12.68;5.32;;;;;;;19.57;61.74;100919.19;5014865;28;20064;-69
2022/06/23 06:34:26;;;;;;;10.30;5.35;;;;;;;19.64;61.15;100925.19;5014346;28;20033;-69
2022/06/23 06:36:52;;;;;;;10.52;5.90;;;;;;;19.66;61.10;100922.97;5014436;28;20100;-69
2022/06/23 06:39:29;;;;;;;11.18;5.70;;;;;;;19.73;60.85;100930.06;4997568;28;20061;-70
2022/06/23 06:42:05;;;;;;;14.68;5.35;;;;;;;19.82;60.67;100925.63;5024807;28;20053;-69
2022/06/23 06:44:32;;;;;;;11.38;5.38;;;;;;;19.90;60.92;100913.22;5033854;28;20075;-69
2022/06/23 06:46:59;;;;;;;9.90;4.60;;;;;;;19.97;60.24;100910.97;5034090;28;20072;-69
2022/06/23 06:49:28;;;;;;;13.63;5.47;;;;;;;20.08;61.14;100917.19;5034073;28;20065;-69
2022/06/23 06:51:56;;;;;;;12.55;5.75;;;;;;;20.14;60.47;100914.13;5032345;28;20040;-70
2022/06/23 06:54:41;;;;;;;15.68;5.80;;;;;;;20.25;60.63;100917.59;5031388;28;20030;-70
2022/06/23 06:57:16;;;;;;;14.30;6.18;;;;;;;20.30;60.73;100920.28;5032782;28;20125;-69
2022/06/23 07:00:23;;;;;;;11.15;5.22;;;;;;;20.41;60.78;100925.69;5029644;28;20056;-70
2022/06/23 07:02:53;;;;;;;8.95;5.20;;;;;;;20.52;60.65;100930.00;5042371;28;20102;-69
2022/06/23 07:05:39;;;;;;;21.98;5.80;;;;;;;20.62;60.63;100931.81;5053169;28;20028;-69
2022/06/23 07:08:11;;;;;;;9.45;5.35;;;;;;;20.63;59.63;100934.28;5053682;28;20025;-69
2022/06/23 07:10:41;;;;;;;10.32;5.50;;;;;;;20.78;59.70;100929.75;5042284;28;20100;-69
2022/06/23 07:13:13;;;;;;;12.02;5.30;;;;;;;20.84;60.19;100931.34;5013861;28;20104;-69
2022/06/23 07:15:48;;;;;;;10.73;4.95;;;;;;;20.92;59.38;100930.69;5031158;28;20087;-69
2022/06/23 07:18:25;;;;;;;15.50;5.60;;;;;;;21.00;59.55;100927.31;5031402;28;20033;-70
2022/06/23 07:21:07;;;;;;;12.82;5.65;;;;;;;21.11;59.17;100924.44;5026919;28;20033;-69
2022/06/23 07:23:46;;;;;;;;;;;;;;;21.17;60.15;100917.75;5016453;28;20444;-69
2022/06/23 07:26:27;;;;;;;11.82;4.95;;;;;;;21.33;60.02;100918.34;5033322;28;19913;-69
2022/06/23 07:28:59;;;;;;;13.90;5.43;;;;;;;21.38;60.57;100916.34;5032625;28;20388;-69
2022/06/23 07:31:43;;;;;;;10.07;5.72;;;;;;;21.46;60.77;100922.31;5033359;28;20025;-69
2022/06/23 07:34:11;;;;;;;10.68;5.30;;;;;;;21.58;60.70;100907.00;5028432;28;20450;-70
2022/06/23 07:36:42;;;;;;;12.02;5.47;;;;;;;21.59;60.73;100911.41;5013378;28;20042;-71
2022/06/23 07:39:33;;;;;;;10.25;5.57;;;;;;;21.68;61.33;100906.03;5013053;28;20026;-70
2022/06/23 07:42:35;;;;;;;15.63;5.63;;;;;;;21.81;60.94;100920.19;5032508;28;20042;-70
2022/06/23 07:45:07;;;;;;;8.75;5.35;;;;;;;21.89;62.21;100911.22;5025102;28;20064;-70
2022/06/23 07:47:33;;;;;;;16.75;6.13;;;;;;;21.90;61.49;100908.16;5015565;28;20026;-70
2022/06/23 07:49:58;;;;;;;14.82;6.18;;;;;;;21.91;61.29;100911.75;5017277;28;20029;-70
2022/06/23 07:52:23;;;;;;;11.75;6.22;;;;;;;22.00;61.86;100920.16;5027721;28;20053;-70
2022/06/23 07:54:50;;;;;;;13.00;6.20;;;;;;;22.08;62.74;100908.44;5031412;28;20389;-70
2022/06/23 07:57:16;;;;;;;17.88;6.43;;;;;;;22.26;62.84;100912.28;5021888;28;20037;-69
2022/06/23 07:59:52;;;;;;;18.92;6.20;;;;;;;22.36;63.28;100917.63;5027434;28;20032;-70
2022/06/23 08:02:52;;;;;;;16.55;6.38;;;;;;;22.42;61.88;100905.41;5028791;28;20161;-70
2022/06/23 08:05:29;;;;;;;11.35;6.43;;;;;;;22.52;62.21;100914.59;4990980;28;20081;-70
2022/06/23 08:07:55;;;;;;;14.73;6.60;;;;;;;22.47;63.06;100913.56;5013115;28;20030;-70
2022/06/23 08:10:26;;;;;;;13.82;5.75;;;;;;;22.53;63.50;100908.78;5012441;28;20362;-70
2022/06/23 08:13:06;;;;;;;13.55;6.10;;;;;;;22.58;63.06;100913.38;5012704;28;20038;-70
2022/06/23 08:18:43;;;;;;;16.10;5.95;;;;;;;22.67;63.17;100900.50;5020420;28;20283;-70
2022/06/23 08:21:25;;;;;;;15.18;5.75;;;;;;;22.69;63.31;100897.44;5032829;28;20033;-70
2022/06/23 08:24:01;;;;;;;16.98;5.55;;;;;;;22.77;63.57;100905.84;5031486;28;20385;-70
2022/06/23 08:26:28;;;;;;;15.20;5.53;;;;;;;22.82;63.28;100900.19;5012581;28;20025;-70
2022/06/23 08:28:57;;;;;;;19.58;5.50;;;;;;;22.92;63.66;100896.44;5012603;28;20030;-70
2022/06/23 08:31:23;;;;;;;13.85;5.57;;;;;;;22.93;62.92;100897.25;5012664;28;20030;-70
2022/06/23 08:33:49;;;;;;;16.30;5.28;;;;;;;23.00;62.76;100894.88;5020146;28;20362;-70
2022/06/23 08:36:20;;;;;;;13.35;4.85;;;;;;;23.06;62.77;100901.94;5012208;28;20048;-71
2022/06/23 08:39:04;;;;;;;16.85;4.72;;;;;;;23.18;63.26;100893.97;5012495;28;20436;-70
2022/06/23 08:41:43;;;;;;;11.80;4.35;;;;;;;23.38;62.73;100896.59;5012520;28;20038;-70
2022/06/23 08:44:19;;;;;;;11.25;3.90;;;;;;;23.45;62.23;100897.81;5012806;28;20386;-70
2022/06/23 08:46:54;;;;;;;12.13;4.70;;;;;;;23.42;61.79;100892.09;5013820;28;20036;-70
2022/06/23 08:49:35;;;;;;;16.15;4.82;;;;;;;23.53;61.97;100896.25;5024347;28;20041;-70
2022/06/23 08:52:16;;;;;;;12.63;4.37;;;;;;;23.58;62.03;100900.84;5036588;28;20084;-70
2022/06/23 08:55:05;;;;;;;10.07;3.90;;;;;;;23.62;61.31;100902.66;5036439;28;20025;-70
2022/06/23 08:57:45;;;;;;;12.13;4.47;;;;;;;23.68;61.50;100898.63;5036004;28;20380;-70
2022/06/23 09:00:20;;;;;;;9.68;4.22;;;;;;;23.76;61.39;100904.56;5035968;28;20044;-70
2022/06/23 09:03:12;;;;;;;10.13;4.22;;;;;;;23.71;61.08;100886.16;5024252;28;20397;-69
2022/06/23 09:05:58;;;;;;;12.88;4.53;;;;;;;23.89;62.05;100901.75;4996340;28;20125;-70
2022/06/23 09:08:45;;;;;;;13.18;4.30;;;;;;;23.95;61.37;100898.88;4997576;28;20026;-69
2022/06/23 09:11:31;;;;;;;7.15;3.80;;;;;;;24.00;61.66;100895.97;4996333;28;20032;-70
2022/06/23 09:14:33;;;;;;;12.77;4.20;;;;;;;24.06;61.89;100887.25;4996793;28;20030;-70
2022/06/23 09:17:25;;;;;;;11.70;3.70;;;;;;;24.20;61.95;100891.88;4996978;28;20455;-69
2022/06/23 09:20:08;;;;;;;9.48;3.50;;;;;;;24.40;62.02;100888.56;5009533;28;20474;-69
2022/06/23 09:22:55;;;;;;;9.70;3.67;;;;;;;24.43;61.08;100895.44;4996135;28;20561;-69
2022/06/23 09:25:39;;;;;;;9.32;3.70;;;;;;;24.56;61.94;100886.22;4996166;28;20041;-74
2022/06/23 09:28:14;;;;;;;15.70;4.22;;;;;;;24.65;61.70;100877.16;5001258;28;20125;-70
2022/06/23 09:31:18;;;;;;;11.00;4.28;;;;;;;24.79;61.74;100880.63;5005365;28;20022;-71
2022/06/23 09:34:06;;;;;;;10.02;3.85;;;;;;;24.85;62.96;100876.59;4989777;28;20473;-69
2022/06/23 09:36:44;;;;;;;11.98;3.97;;;;;;;24.83;62.09;100873.31;5006181;28;20066;-70
2022/06/23 09:39:30;;;;;;;14.48;4.00;;;;;;;24.83;62.62;100867.75;4996489;28;20034;-68
2022/06/23 09:42:01;;;;;;;12.15;3.90;;;;;;;24.84;62.45;100869.41;4996204;28;20045;-68
2022/06/23 09:44:44;;;;;;;;;;;;;;;24.78;62.09;100862.38;5005303;28;20504;-69
2022/06/23 09:47:45;;;;;;;12.35;3.80;;;;;;;24.87;62.17;100874.28;5004997;28;20369;-69
2022/06/23 09:50:54;;;;;;;20.30;4.05;;;;;;;25.06;62.85;100875.97;4996200;28;20081;-68
2022/06/23 09:53:19;;;;;;;9.50;3.78;;;;;;;25.12;61.22;100869.13;4991299;28;20050;-69
2022/06/23 09:55:56;;;;;;;11.07;3.70;;;;;;;25.15;61.71;100874.00;4995964;28;20041;-70
2022/06/23 09:58:35;;;;;;;14.73;3.75;;;;;;;25.27;60.40;100863.16;4995924;28;20289;-71
2022/06/23 10:01:16;;;;;;;13.48;4.13;;;;;;;25.42;60.76;100866.59;4998982;28;20511;-72
2022/06/23 10:03:56;;;;;;;;;;;;;;;25.47;60.30;100869.22;5029215;28;20037;-69
2022/06/23 10:06:36;;;;;;;17.35;4.10;;;;;;;25.64;59.93;100869.19;5003049;28;20364;-67
2022/06/23 10:09:18;;;;;;;15.18;4.35;;;;;;;25.87;59.70;100869.00;4995767;28;20045;-70
2022/06/23 10:11:58;;;;;;;13.73;4.53;;;;;;;25.79;59.04;100869.84;4996061;28;20030;-67
2022/06/23 10:14:33;;;;;;;12.80;4.00;;;;;;;25.73;59.31;100866.41;4999074;28;20034;-68
2022/06/23 10:17:10;;;;;;;12.80;4.80;;;;;;;25.70;59.10;100867.06;5009184;28;20100;-70
2022/06/23 10:20:00;;;;;;;15.02;4.72;;;;;;;25.82;59.70;100869.19;5010257;28;20037;-70
2022/06/23 10:23:07;;;;;;;14.95;5.22;;;;;;;25.89;59.91;100863.97;5011659;28;20030;-69
2022/06/23 10:25:48;;;;;;;12.60;4.13;;;;;;;26.19;59.05;100861.28;5013630;28;20041;-69
2022/06/23 10:28:37;;;;;;;14.43;4.33;;;;;;;26.22;58.83;100857.84;5015030;28;20037;-72
2022/06/23 10:31:05;;;;;;;12.18;4.38;;;;;;;26.25;58.44;100856.38;5012491;28;20354;-69
2022/06/23 10:33:55;;;;;;;14.68;4.22;;;;;;;26.45;59.57;100854.84;4996459;28;20489;-71
2022/06/23 10:36:38;;;;;;;14.90;4.60;;;;;;;26.38;58.36;100847.03;4995112;28;20058;-69
2022/06/23 10:39:28;;;;;;;14.48;3.92;;;;;;;26.43;57.52;100848.81;4995543;28;20038;-68
2022/06/23 10:42:17;;;;;;;9.68;3.28;;;;;;;26.56;57.37;100844.16;4995367;28;20399;-68
2022/06/23 10:45:08;;;;;;;11.40;3.28;;;;;;;26.66;55.50;100853.00;4994801;28;20035;-68
2022/06/23 10:47:59;;;;;;;;;;;;;;;26.66;56.91;100838.25;4995294;28;20087;-69
2022/06/23 10:50:38;;;;;;;18.27;3.70;;;;;;;26.76;56.44;100834.31;5023075;28;19956;-69
2022/06/23 10:53:52;;;;;;;9.68;3.58;;;;;;;26.81;54.92;100836.88;5002666;28;20027;-68
2022/06/23 10:56:46;;;;;;;11.32;3.30;;;;;;;26.98;54.38;100839.56;5013392;28;20055;-71
2022/06/23 10:59:45;;;;;;;11.10;3.58;;;;;;;27.13;55.49;100831.78;5014174;28;20030;-68
2022/06/23 11:02:13;;;;;;;12.18;4.35;;;;;;;26.97;53.16;100839.91;5021121;28;20078;-68
2022/06/23 11:04:44;;;;;;;15.13;3.78;;;;;;;27.00;55.10;100828.94;5033791;28;20374;-67
2022/06/23 11:07:36;;;;;;;11.07;3.50;;;;;;;27.00;54.64;100830.91;5016144;28;20029;-72
2022/06/23 11:10:31;;;;;;;8.60;3.53;;;;;;;27.07;53.67;100822.84;5013555;28;20136;-68
2022/06/23 11:13:01;;;;;;;13.18;3.83;;;;;;;27.28;54.81;100824.78;5013920;28;20469;-68
2022/06/23 11:15:48;;;;;;;11.40;4.25;;;;;;;27.25;53.60;100820.72;5013871;28;20038;-72
2022/06/23 11:18:36;;;;;;;11.38;3.25;;;;;;;27.06;53.45;100819.25;4994501;28;20061;-68
2022/06/23 11:21:40;;;;;;;13.82;4.00;;;;;;;27.11;53.33;100822.97;4999332;28;20461;-69
2022/06/23 11:24:23;;;;;;;19.02;3.92;;;;;;;27.27;53.29;100826.78;5013988;28;20107;-72
2022/06/23 11:27:21;;;;;;;11.77;3.80;;;;;;;27.54;53.79;100830.19;5013919;28;20041;-69
2022/06/23 11:30:15;;;;;;;17.85;3.80;;;;;;;27.65;52.60;100825.81;4987723;28;20056;-68
2022/06/23 11:33:08;;;;;;;12.07;3.83;;;;;;;28.02;53.66;100825.13;5013565;28;20561;-68
2022/06/23 11:35:46;;;;;;;17.75;3.90;;;;;;;28.08;50.42;100827.34;5008653;28;20394;-67
2022/06/23 11:38:23;;;;;;;14.23;3.80;;;;;;;28.12;51.23;100835.81;4994631;28;20046;-68
2022/06/23 11:41:01;;;;;;;12.07;3.67;;;;;;;27.93;50.79;100836.31;4994046;28;20489;-68
2022/06/23 11:44:03;;;;;;;12.57;3.90;;;;;;;27.65;51.54;100827.78;4993752;28;20039;-68
2022/06/23 11:47:02;;;;;;;17.13;3.90;;;;;;;27.59;52.28;100824.41;4980327;28;20049;-70
2022/06/23 11:49:54;;;;;;;18.77;4.03;;;;;;;27.45;51.84;100809.97;4982124;28;20038;-70
2022/06/23 11:52:38;;;;;;;13.32;3.78;;;;;;;27.45;51.40;100812.75;4994518;28;20041;-68
2022/06/23 11:55:12;;;;;;;19.00;4.25;;;;;;;27.37;52.22;100803.34;5009101;28;20033;-68
2022/06/23 11:57:50;;;;;;;13.57;3.83;;;;;;;27.23;52.16;100803.59;5013063;28;20037;-67
2022/06/23 12:00:18;;;;;;;14.60;3.78;;;;;;;27.30;52.36;100803.88;5011518;28;20044;-71
2022/06/23 12:03:22;;;;;;;11.98;3.78;;;;;;;27.56;52.66;100800.88;5026255;28;20046;-67
2022/06/23 12:06:02;;;;;;;12.43;3.95;;;;;;;27.96;52.09;100802.31;5011171;28;20117;-69
2022/06/23 12:08:46;;;;;;;15.30;4.05;;;;;;;27.95;52.12;100800.63;4992852;28;20338;-68
2022/06/23 12:11:11;;;;;;;11.98;3.88;;;;;;;28.16;51.92;100805.31;4993643;28;20093;-71
2022/06/23 12:13:37;;;;;;;15.43;3.75;;;;;;;28.24;49.50;100808.00;4995011;28;20030;-68
2022/06/23 12:16:04;;;;;;;9.52;3.67;;;;;;;28.28;48.85;100805.34;4992969;28;20037;-68
2022/06/23 12:18:38;;;;;;;10.52;4.00;;;;;;;28.26;49.22;100797.34;4991492;28;20105;-68
2022/06/23 12:21:19;;;;;;;13.88;3.60;;;;;;;28.51;50.17;100799.31;4993362;28;20026;-69
2022/06/23 12:23:59;;;;;;;9.82;3.17;;;;;;;28.72;50.25;100804.78;4999652;28;20030;-68
2022/06/23 12:26:30;;;;;;;13.60;3.65;;;;;;;28.66;48.19;100795.84;5012635;28;20029;-70